Terminal Aerodrome Forecast
Issued by NWS Pendleton, OR

Home | Current Version | Previous Version | Text Only | Print | Product List | Glossary On
Versions: 1 2 3 4 5 6 7 8 9 10 11 12 13
000
FTUS46 KPDT 231700
TAFPDT
TAF
KPDT 231724Z 2318/2418 28015G25KT P6SM SCT100
     FM232200 27020G30KT P6SM VCTS BKN050CB BKN100
     FM240300 25016G23KT P6SM SCT100
     FM240900 24012KT P6SM SCT080=

USA.gov is the U.S. government's official web portal to all federal, state and local government web resources and services.